createdAt,value
2019-02-08T00:02:08.843Z,94345.58
2019-02-08T00:04:45.168Z,94336.84
2019-02-08T00:07:42.529Z,94333.11
2019-02-08T00:10:22.070Z,94308.29
2019-02-08T00:12:53.983Z,94325.48
2019-02-08T00:15:39.799Z,94327.89
2019-02-08T00:18:17.527Z,94318.84
2019-02-08T00:20:53.308Z,94332.61
2019-02-08T00:23:30.798Z,94343.16
2019-02-08T00:26:10.838Z,94365.59
2019-02-08T00:28:49.719Z,94366.42
2019-02-08T00:31:20.873Z,94329.70
2019-02-08T00:34:15.427Z,94332.61
2019-02-08T00:36:54.887Z,94325.98
2019-02-08T00:39:37.449Z,94358.15
2019-02-08T00:42:13.292Z,94351.61
2019-02-08T00:45:01.020Z,94339.75
2019-02-08T00:47:40.702Z,94322.56
2019-02-08T00:50:28.176Z,94348.19
2019-02-08T00:53:16.517Z,94343.67
2019-02-08T00:55:58.057Z,94316.23
2019-02-08T00:58:30.824Z,94329.90
2019-02-08T01:01:02.044Z,94341.06
2019-02-08T01:03:39.060Z,94350.00
2019-02-08T01:06:38.370Z,94354.22
2019-02-08T01:09:21.293Z,94334.12
2019-02-08T01:11:57.007Z,94365.11
2019-02-08T01:14:31.496Z,94352.41
2019-02-08T01:17:38.920Z,94347.39
2019-02-08T01:20:05.974Z,94344.17
2019-02-08T01:22:39.400Z,94338.64
2019-02-08T01:25:15.525Z,94346.38
2019-02-08T01:27:51.239Z,94361.36
2019-02-08T01:30:27.376Z,94362.97
2019-02-08T01:33:02.306Z,94356.34
2019-02-08T01:35:38.230Z,94354.33
2019-02-08T01:38:12.615Z,94367.23
2019-02-08T01:40:50.903Z,94374.56
2019-02-08T01:43:30.159Z,94391.25
2019-02-08T01:46:09.821Z,94395.98
2019-02-08T01:48:59.810Z,94381.20
2019-02-08T01:51:35.681Z,94389.65
2019-02-08T01:54:24.044Z,94399.70
2019-02-08T01:57:06.937Z,94391.76
2019-02-08T01:59:45.286Z,94384.82
2019-02-08T02:02:22.710Z,94373.56
2019-02-08T02:04:58.621Z,94397.29
2019-02-08T02:07:36.111Z,94410.97
2019-02-08T02:10:19.365Z,94395.98
2019-02-08T02:13:10.546Z,94376.67
2019-02-08T02:15:56.728Z,94380.90
2019-02-08T02:18:43.464Z,94396.48
2019-02-08T02:21:23.134Z,94362.67
2019-02-08T02:24:02.014Z,94418.41
2019-02-08T02:26:35.822Z,94405.44
2019-02-08T02:29:22.605Z,94408.15
2019-02-08T02:32:09.515Z,94399.40
2019-02-08T02:34:50.452Z,94419.52
2019-02-08T02:37:25.666Z,94414.98
2019-02-08T02:40:04.555Z,94419.72
2019-02-08T02:42:37.179Z,94423.44
2019-02-08T02:45:18.652Z,94445.36
2019-02-08T02:47:59.944Z,94457.23
2019-02-08T02:50:36.427Z,94442.95
2019-02-08T02:53:21.829Z,94450.70
2019-02-08T02:55:52.803Z,94471.82
2019-02-08T02:58:43.833Z,94467.90
2019-02-08T03:01:25.611Z,94466.79
2019-02-08T03:04:12.870Z,94435.30
2019-02-08T03:07:04.266Z,94459.45
2019-02-08T03:09:38.721Z,94452.00
2019-02-08T03:12:14.048Z,94437.72
2019-02-08T03:15:06.662Z,94453.81
2019-02-08T03:18:23.753Z,94465.98
2019-02-08T03:21:08.559Z,94456.93
2019-02-08T03:23:51.035Z,94495.30
2019-02-08T03:27:08.306Z,94518.64
2019-02-08T03:29:42.098Z,94529.70
2019-02-08T03:32:58.105Z,94531.22
2019-02-08T03:35:48.462Z,94503.55
2019-02-08T03:41:15.061Z,94533.73
2019-02-08T03:44:14.776Z,94539.77
2019-02-08T03:46:59.751Z,94538.16
2019-02-08T03:49:52.616Z,94536.85
2019-02-08T03:52:26.209Z,94549.23
2019-02-08T03:55:02.100Z,94560.91
2019-02-08T03:58:00.130Z,94538.97
2019-02-08T04:01:06.315Z,94527.80
2019-02-08T04:03:45.734Z,94555.07
2019-02-08T04:06:38.296Z,94556.08
2019-02-08T04:09:32.014Z,94566.44
2019-02-08T04:14:28.245Z,94577.31
2019-02-08T04:17:28.008Z,94555.88
2019-02-08T04:20:14.742Z,94573.59
2019-02-08T04:23:17.474Z,94573.89
2019-02-08T04:26:30.333Z,94614.09
2019-02-08T04:29:22.223Z,94599.49
2019-02-08T04:32:03.516Z,94590.20
2019-02-08T04:34:44.468Z,94614.59
2019-02-08T04:37:23.054Z,94599.30
2019-02-08T04:40:02.469Z,94609.06
2019-02-08T04:42:56.199Z,94621.24
2019-02-08T04:45:35.991Z,94613.28
2019-02-08T04:48:34.957Z,94598.19
2019-02-08T04:51:12.545Z,94571.98
2019-02-08T04:53:54.751Z,94606.64
2019-02-08T04:56:54.106Z,94609.76
2019-02-08T04:59:53.599Z,94644.20
2019-02-08T05:03:00.234Z,94659.31
2019-02-08T05:05:38.067Z,94686.80
2019-02-08T05:08:28.624Z,94691.84
2019-02-08T05:11:05.837Z,94702.42
2019-02-08T05:13:50.397Z,94712.83
2019-02-08T05:16:39.238Z,94706.48
2019-02-08T05:19:15.971Z,94713.84
2019-02-08T05:21:54.514Z,94756.16
2019-02-08T05:24:45.670Z,94771.47
2019-02-08T05:27:40.168Z,94765.92
2019-02-08T05:30:41.310Z,94763.92
2019-02-08T05:33:29.596Z,94794.05
2019-02-08T05:36:19.758Z,94822.72
2019-02-08T05:38:59.369Z,94835.11
2019-02-08T05:41:42.678Z,94863.44
2019-02-08T05:44:20.676Z,94875.14
2019-02-08T05:47:00.732Z,94882.00
2019-02-08T05:49:40.940Z,94866.67
2019-02-08T05:52:23.563Z,94880.19
2019-02-08T05:54:59.716Z,94909.23
2019-02-08T05:57:36.271Z,94930.72
2019-02-08T06:00:28.429Z,94923.25
2019-02-08T06:03:02.217Z,94949.01
2019-02-08T06:05:36.602Z,94930.72
2019-02-08T06:08:18.934Z,94943.45
2019-02-08T06:10:56.164Z,94956.67
2019-02-08T06:13:55.462Z,94958.48
2019-02-08T06:16:28.145Z,94960.91
2019-02-08T06:19:04.198Z,94949.20
2019-02-08T06:22:15.563Z,94882.77
2019-02-08T06:25:03.967Z,94926.37
2019-02-08T06:27:39.883Z,94906.91
2019-02-08T06:30:18.090Z,94941.34
2019-02-08T06:32:54.769Z,94955.05
2019-02-08T06:35:36.443Z,94946.75
2019-02-08T06:38:09.776Z,94962.41
2019-02-08T06:40:47.953Z,94983.60
2019-02-08T06:43:21.605Z,94994.00
2019-02-08T06:45:55.943Z,95014.19
2019-02-08T06:48:28.749Z,94984.91
2019-02-08T06:51:04.223Z,94960.10
2019-02-08T06:53:38.913Z,94971.70
2019-02-08T06:56:28.686Z,94985.33
2019-02-08T06:59:18.915Z,95006.52
2019-02-08T07:02:10.997Z,95032.45
2019-02-08T07:04:59.984Z,95037.39
2019-02-08T07:07:38.879Z,95040.94
2019-02-08T07:10:38.635Z,95040.63
2019-02-08T07:13:28.256Z,95049.41
2019-02-08T07:16:20.838Z,95034.27
2019-02-08T07:19:13.483Z,95074.89
2019-02-08T07:22:08.280Z,95089.23
2019-02-08T07:25:09.216Z,95094.78
2019-02-08T07:28:13.944Z,95106.50
2019-02-08T07:31:06.339Z,95140.13
2019-02-08T07:33:46.840Z,95147.91
2019-02-08T07:36:42.367Z,95191.80
2019-02-08T07:39:47.466Z,95212.90
2019-02-08T07:42:36.053Z,95212.90
2019-02-08T07:45:18.375Z,95241.60
2019-02-08T07:48:00.833Z,95285.52
2019-02-08T07:51:01.401Z,95356.08
2019-02-08T07:53:54.171Z,95405.77
2019-02-08T07:56:52.703Z,95316.35
2019-02-08T07:59:36.129Z,95289.95
2019-02-08T08:02:35.637Z,95286.82
2019-02-08T08:05:34.512Z,95304.00
2019-02-08T08:08:34.868Z,95335.84
2019-02-08T08:11:43.050Z,95336.97
2019-02-08T08:14:50.275Z,95336.97
2019-02-08T08:18:05.283Z,95342.22
2019-02-08T08:21:15.353Z,95349.70
2019-02-08T08:24:15.848Z,95321.30
2019-02-08T08:30:27.938Z,95261.82
2019-02-08T08:33:16.694Z,95264.45
2019-02-08T08:36:13.624Z,95256.95
2019-02-08T08:39:39.296Z,95297.13
2019-02-08T08:42:40.390Z,95327.86
2019-02-08T08:45:43.316Z,95377.81
2019-02-08T08:48:59.216Z,95345.65
2019-02-08T08:51:58.629Z,95405.46
2019-02-08T08:55:42.043Z,95436.63
2019-02-08T08:58:35.521Z,95436.63
2019-02-08T09:02:05.572Z,95483.88
2019-02-08T09:05:12.421Z,95533.92
2019-02-08T09:08:23.563Z,95564.19
2019-02-08T09:11:15.705Z,95586.27
2019-02-08T09:14:29.053Z,95598.53
2019-02-08T09:17:24.196Z,95556.81
2019-02-08T09:20:30.481Z,95571.70
2019-02-08T09:23:28.744Z,95596.40
2019-02-08T09:26:39.298Z,95596.40
2019-02-08T09:29:54.411Z,95569.26
2019-02-08T09:36:56.270Z,95739.59
2019-02-08T09:40:37.268Z,95823.47
2019-02-08T09:43:16.744Z,95845.39
2019-02-08T09:46:14.997Z,95887.52
2019-02-08T09:49:43.697Z,95893.41
2019-02-08T09:52:52.748Z,95887.83
2019-02-08T09:56:14.230Z,95780.70
2019-02-08T10:00:09.917Z,95776.63
2019-02-08T10:03:30.705Z,95767.11
2019-02-08T10:06:48.279Z,95861.65
2019-02-08T10:10:28.017Z,95844.58
2019-02-08T10:13:38.223Z,95867.41
2019-02-08T10:16:55.500Z,95919.48
2019-02-08T10:20:08.682Z,95895.92
2019-02-08T10:23:20.833Z,95930.32
2019-02-08T10:26:29.603Z,95971.63
2019-02-08T10:29:29.781Z,96010.97
2019-02-08T10:32:54.733Z,95903.94
2019-02-08T10:35:54.055Z,95936.39
2019-02-08T10:39:05.060Z,95963.91
2019-02-08T10:42:34.377Z,96025.38
2019-02-08T10:45:51.476Z,95988.20
2019-02-08T10:49:09.847Z,95964.10
2019-02-08T10:52:20.579Z,95872.17
2019-02-08T10:55:41.006Z,95897.23
2019-02-08T10:58:52.414Z,95898.55
2019-02-08T11:02:09.392Z,95938.84
2019-02-08T11:05:05.102Z,95990.33
2019-02-08T11:08:11.404Z,96066.77
2019-02-08T11:11:29.450Z,95954.26
2019-02-08T11:14:40.021Z,95954.89
2019-02-08T11:17:33.871Z,95963.09
2019-02-08T11:20:07.488Z,95982.31
2019-02-08T11:22:47.038Z,96018.05
2019-02-08T11:25:19.606Z,96050.02
2019-02-08T11:27:57.444Z,96074.48
2019-02-08T11:30:27.941Z,96089.41
2019-02-08T11:33:04.852Z,96027.39
2019-02-08T11:35:37.625Z,95942.29
2019-02-08T11:38:11.314Z,95911.14
2019-02-08T11:40:48.654Z,95987.58
2019-02-08T11:43:24.707Z,95994.28
2019-02-08T11:46:02.389Z,96079.88
2019-02-08T11:48:43.293Z,95948.37
2019-02-08T11:51:15.207Z,96052.34
2019-02-08T11:53:57.562Z,96280.47
2019-02-08T11:56:39.438Z,96551.56
2019-02-08T11:59:17.407Z,96864.75
2019-02-08T12:01:55.793Z,96733.13
2019-02-08T12:04:32.808Z,96552.06
2019-02-08T12:07:21.225Z,96292.65
2019-02-08T12:09:55.290Z,96103.21
2019-02-08T12:13:09.592Z,95959.52
2019-02-08T12:15:53.807Z,95916.91
2019-02-08T12:18:52.079Z,95816.64
2019-02-08T12:21:41.361Z,95739.66
2019-02-08T12:24:31.320Z,96042.00
2019-02-08T12:27:39.543Z,96615.58
2019-02-08T12:30:55.945Z,96912.92
2019-02-08T12:33:51.164Z,96728.20
2019-02-08T12:37:23.746Z,96476.92
2019-02-08T12:40:31.730Z,96259.48
2019-02-08T12:43:40.766Z,96053.16
2019-02-08T12:57:04.553Z,95700.05
2019-02-08T13:00:36.709Z,95734.91
2019-02-08T13:03:48.242Z,95649.98
2019-02-08T13:07:07.621Z,95713.94
2019-02-08T13:12:57.612Z,95742.92
2019-02-08T13:16:44.602Z,95722.95
2019-02-08T13:23:24.046Z,95738.16
2019-02-08T13:26:52.813Z,95703.17
2019-02-08T13:30:03.236Z,95638.81
2019-02-08T13:36:22.428Z,95595.66
2019-02-08T13:39:31.231Z,95569.64
2019-02-08T13:45:46.390Z,95530.41
2019-02-08T13:49:09.960Z,95483.14
2019-02-08T13:54:57.958Z,95443.27
2019-02-08T13:57:41.614Z,95402.57
2019-02-08T14:03:55.747Z,95385.45
2019-02-08T14:09:53.876Z,95317.50
2019-02-08T14:16:38.029Z,95245.81
2019-02-08T14:25:20.968Z,95222.97
2019-02-08T14:28:35.158Z,95238.83
2019-02-08T14:34:43.461Z,95165.15
2019-02-08T14:37:49.899Z,95161.41
2019-02-08T14:40:41.166Z,95111.02
2019-02-08T14:43:54.055Z,95057.36
2019-02-08T14:48:48.372Z,95055.05
2019-02-08T14:50:31.715Z,95073.02
2019-02-08T14:53:13.465Z,95017.90
2019-02-08T14:56:11.438Z,95003.27
2019-02-08T14:59:16.553Z,94998.02
2019-02-08T15:02:04.178Z,94983.69
2019-02-08T15:04:41.044Z,94986.31
2019-02-08T15:10:56.994Z,94985.00
2019-02-08T15:13:42.166Z,94966.09
2019-02-08T15:19:15.028Z,94945.21
2019-02-08T15:22:14.752Z,94928.46
2019-02-08T15:25:07.010Z,94944.41
2019-02-08T15:27:39.878Z,94955.81
2019-02-08T15:33:41.613Z,94941.28
2019-02-08T15:36:22.792Z,94931.20
2019-02-08T15:39:01.354Z,94952.38
2019-02-08T15:41:39.271Z,94927.96
2019-02-08T15:45:17.073Z,94916.87
2019-02-08T15:46:56.977Z,94935.13
2019-02-08T15:49:55.174Z,94947.33
2019-02-08T15:53:14.683Z,94963.47
2019-02-08T15:56:21.276Z,94970.97
2019-02-08T15:59:43.908Z,94956.61
2019-02-08T16:08:12.736Z,94965.09
2019-02-08T16:10:49.192Z,94976.02
2019-02-08T16:13:26.664Z,94968.05
2019-02-08T16:16:18.553Z,94952.38
2019-02-08T16:19:05.115Z,94986.61
2019-02-08T16:21:48.784Z,94982.07
2019-02-08T16:24:19.736Z,94992.66
2019-02-08T16:27:00.951Z,94998.02
2019-02-08T16:29:40.427Z,95020.21
2019-02-08T16:32:14.863Z,94998.02
2019-02-08T16:34:48.376Z,94989.73
2019-02-08T16:37:30.256Z,95015.98
2019-02-08T16:40:11.664Z,95029.30
2019-02-08T16:43:03.987Z,95057.98
2019-02-08T16:45:56.624Z,95082.95
2019-02-08T16:48:29.075Z,95100.72
2019-02-08T16:51:12.165Z,95029.81
2019-02-08T16:53:53.596Z,95029.81
2019-02-08T16:56:38.412Z,95062.22
2019-02-08T16:59:31.065Z,95080.21
2019-02-08T17:02:08.692Z,95047.88
2019-02-08T17:04:48.882Z,95088.00
2019-02-08T17:11:30.744Z,95128.09
2019-02-08T17:16:45.556Z,95140.89
2019-02-08T17:22:49.217Z,95171.33
2019-02-08T17:25:27.063Z,95181.31
2019-02-08T17:28:01.392Z,95172.13
2019-02-08T17:31:15.906Z,95161.22
2019-02-08T17:34:02.583Z,95122.23
2019-02-08T17:36:56.361Z,95173.44
2019-02-08T17:42:17.823Z,95172.13
2019-02-08T17:45:05.502Z,95181.93
2019-02-08T17:47:54.515Z,95208.23
2019-02-08T17:50:48.450Z,95169.89
2019-02-08T17:53:23.626Z,95207.11
2019-02-08T17:55:57.767Z,95217.91
2019-02-08T17:58:40.607Z,95217.91
2019-02-08T18:01:14.709Z,95167.27
2019-02-08T18:03:47.663Z,95178.69
2019-02-08T18:06:25.507Z,95142.83
2019-02-08T18:09:08.517Z,95191.95
2019-02-08T18:11:40.707Z,95191.95
2019-02-08T18:14:14.440Z,95194.69
2019-02-08T18:16:48.765Z,95206.80
2019-02-08T18:19:23.960Z,95209.54
2019-02-08T18:21:58.078Z,95209.54
2019-02-08T18:24:34.654Z,95229.95
2019-02-08T18:27:09.893Z,95270.58
2019-02-08T18:29:58.883Z,95270.58
2019-02-08T18:32:31.976Z,95292.31
2019-02-08T18:35:07.610Z,95317.12
2019-02-08T18:37:42.920Z,95310.95
2019-02-08T18:40:17.902Z,95315.19
2019-02-08T18:43:01.124Z,95304.07
2019-02-08T18:45:55.009Z,95304.07
2019-02-08T18:48:36.223Z,95281.50
2019-02-08T18:51:13.266Z,95282.20
2019-02-08T18:53:55.928Z,95282.20
2019-02-08T18:59:53.866Z,95312.87
2019-02-08T18:59:56.563Z,95304.58
2019-02-08T19:14:14.863Z,95161.22
2019-02-08T19:20:23.121Z,95125.55
2019-02-08T19:26:51.215Z,95099.91
2019-02-08T19:29:34.527Z,95117.69
2019-02-08T19:33:07.748Z,95172.52
2019-02-08T19:39:19.069Z,95210.05
2019-02-08T19:42:12.061Z,95194.19
2019-02-08T19:44:50.018Z,95228.33
2019-02-08T19:47:33.696Z,95255.73
2019-02-08T19:50:16.051Z,95255.73
2019-02-08T19:52:54.445Z,95240.06
2019-02-08T19:55:33.031Z,95245.92
2019-02-08T19:58:11.961Z,95253.60
2019-02-08T20:00:51.182Z,95241.98
2019-02-08T20:03:28.439Z,95257.66
2019-02-08T20:06:57.730Z,95229.95
2019-02-08T20:09:22.687Z,95239.25
2019-02-08T20:11:58.516Z,95228.64
2019-02-08T20:14:32.033Z,95219.64
2019-02-08T20:17:17.842Z,95240.36
2019-02-08T20:19:47.447Z,95231.57
2019-02-08T20:22:20.098Z,95238.44
2019-02-08T20:24:54.733Z,95226.71
2019-02-08T20:27:28.066Z,95219.84
2019-02-08T20:30:04.386Z,95211.35
2019-02-08T20:32:51.011Z,95179.00
2019-02-08T20:35:52.582Z,95185.25
2019-02-08T20:38:31.272Z,95188.18
2019-02-08T20:41:04.621Z,95135.34
2019-02-08T20:43:37.156Z,95135.34
2019-02-08T20:46:09.681Z,95121.62
2019-02-08T20:48:40.224Z,95067.27
2019-02-08T20:51:13.972Z,95039.41
2019-02-08T20:53:47.431Z,95017.09
2019-02-08T20:56:19.418Z,95010.23
2019-02-08T20:58:50.685Z,94976.02
2019-02-08T21:01:23.617Z,94976.33
2019-02-08T21:03:59.451Z,94963.47
2019-02-08T21:06:33.829Z,94932.00
2019-02-08T21:09:16.803Z,94871.59
2019-02-08T21:11:50.926Z,94837.68
2019-02-08T21:14:24.719Z,94785.45
2019-02-08T21:17:01.194Z,94837.68
2019-02-08T21:19:35.236Z,94787.37
2019-02-08T21:22:09.264Z,94818.63
2019-02-08T21:24:52.201Z,94837.98
2019-02-08T21:27:24.888Z,94816.20
2019-02-08T21:31:07.729Z,94830.33
2019-02-08T21:34:16.510Z,94864.03
2019-02-08T21:36:48.391Z,94854.39
2019-02-08T21:39:26.093Z,94809.35
2019-02-08T21:42:02.941Z,94777.10
2019-02-08T21:44:37.911Z,94811.77
2019-02-08T21:47:23.180Z,94832.94
2019-02-08T21:49:52.970Z,94841.11
2019-02-08T21:52:27.607Z,94832.94
2019-02-08T21:54:58.483Z,94836.88
2019-02-08T21:57:31.864Z,94830.83
2019-02-08T22:00:11.307Z,94780.22
2019-02-08T22:02:56.496Z,94784.76
2019-02-08T22:05:46.561Z,94836.67
2019-02-08T22:08:25.892Z,94846.15
2019-02-08T22:10:56.819Z,94880.36
2019-02-08T22:13:41.159Z,94884.20
2019-02-08T22:16:12.068Z,94883.09
2019-02-08T22:18:46.456Z,94912.63
2019-02-08T22:21:26.536Z,94885.52
2019-02-08T22:23:59.639Z,94882.56
2019-02-08T22:26:35.618Z,94878.55
2019-02-08T22:29:28.705Z,94790.50
2019-02-08T22:32:51.653Z,94828.52
2019-02-08T22:42:08.154Z,94741.63
2019-02-08T22:45:09.096Z,94791.11
2019-02-08T22:47:47.826Z,94819.23
2019-02-08T22:50:28.712Z,94797.96
2019-02-08T22:53:05.038Z,94821.35
2019-02-08T22:55:36.889Z,94857.17
2019-02-08T22:58:10.449Z,94859.19
2019-02-08T23:01:26.329Z,94835.56
2019-02-08T23:03:59.598Z,94836.06
2019-02-08T23:06:31.595Z,94829.08
2019-02-08T23:09:10.669Z,94861.80
2019-02-08T23:11:43.683Z,94847.45
2019-02-08T23:14:14.716Z,94854.64
2019-02-08T23:16:48.692Z,94885.52
2019-02-08T23:19:19.633Z,94867.96
2019-02-08T23:21:50.570Z,94931.20
2019-02-08T23:24:24.352Z,94906.59
2019-02-08T23:27:02.830Z,94935.43
2019-02-08T23:29:40.560Z,94924.84
2019-02-08T23:32:07.929Z,94952.19
2019-02-08T23:34:38.806Z,94969.97
2019-02-08T23:37:12.159Z,94960.85
2019-02-08T23:39:44.233Z,94988.84
2019-02-08T23:42:21.910Z,94982.07
2019-02-08T23:44:54.357Z,95008.42
2019-02-08T23:47:25.642Z,94975.21
2019-02-08T23:49:56.372Z,94936.23
2019-02-08T23:52:27.281Z,94969.36
2019-02-08T23:54:59.161Z,94933.39
2019-02-08T23:57:31.129Z,94944.71
